Time;durP1;ratioP1;P1;durP2;ratioP2;P2;SDS_P1;SDS_P2;PMS_P1;PMS_P2;Temp;Humidity;BMP_temperature;BMP_pressure;BME280_temperature;BME280_humidity;BME280_pressure;Samples;Min_cycle;Max_cycle;Signal;HPM_P1;HPM_P2
2023/04/08 00:01:11;;;;;;;37.33;14.05;;;;;;;8.68;86.16;100267.59;5011415;28;20520;-85
2023/04/08 00:03:38;;;;;;;34.13;13.80;;;;;;;8.67;86.01;100265.03;4954820;28;20105;-85
2023/04/08 00:06:05;;;;;;;33.20;12.82;;;;;;;8.65;85.59;100274.91;5014782;28;20501;-85
2023/04/08 00:08:32;;;;;;;34.00;12.32;;;;;;;8.58;85.73;100261.28;5015824;28;20161;-86
2023/04/08 00:10:58;;;;;;;27.98;11.52;;;;;;;8.56;85.51;100262.34;4981125;28;20115;-84
2023/04/08 00:13:25;;;;;;;24.27;11.10;;;;;;;8.61;85.28;100262.84;5009954;28;20054;-85
2023/04/08 00:15:52;;;;;;;27.38;10.93;;;;;;;8.60;85.34;100269.97;5008816;28;20502;-85
2023/04/08 00:18:19;;;;;;;29.73;10.57;;;;;;;8.58;85.56;100263.09;5012623;28;20041;-85
2023/04/08 00:20:45;;;;;;;32.05;11.85;;;;;;;8.61;85.72;100257.56;4969291;28;20052;-85
2023/04/08 00:23:12;;;;;;;27.15;10.57;;;;;;;8.66;85.34;100266.00;5002948;28;20045;-85
2023/04/08 00:25:39;;;;;;;26.65;11.20;;;;;;;8.65;85.35;100269.59;5017650;28;20049;-85
2023/04/08 00:31:53;;;;;;;25.58;10.63;;;;;;;8.53;85.79;100271.38;4984304;28;20656;-86
2023/04/08 00:34:20;;;;;;;35.47;13.15;;;;;;;8.59;85.51;100276.19;4979785;28;20046;-85
2023/04/08 00:36:46;;;;;;;30.42;12.05;;;;;;;8.59;85.03;100276.19;4990704;28;20047;-85
2023/04/08 00:39:13;;;;;;;40.10;13.38;;;;;;;8.55;85.94;100273.88;4990105;28;20481;-86
2023/04/08 00:41:40;;;;;;;36.40;13.32;;;;;;;8.48;85.73;100278.78;4965869;28;20056;-86
2023/04/08 00:44:07;;;;;;;36.97;12.38;;;;;;;8.53;85.67;100274.00;5014698;28;20080;-85
2023/04/08 00:46:36;;;;;;;34.50;12.82;;;;;;;8.43;85.45;100276.47;5010084;28;20109;-85
2023/04/08 00:49:04;;;;;;;35.88;12.98;;;;;;;8.44;85.18;100274.66;5024950;28;20512;-85
2023/04/08 00:51:30;;;;;;;43.55;13.15;;;;;;;8.44;85.27;100279.97;4984821;28;20050;-85
2023/04/08 00:53:59;;;;;;;42.13;15.25;;;;;;;8.43;86.60;100276.47;4991677;28;20060;-85
2023/04/08 00:56:26;;;;;;;43.75;14.02;;;;;;;8.41;87.18;100277.53;4996833;28;20065;-85
2023/04/08 00:58:54;;;;;;;38.47;14.02;;;;;;;8.38;87.26;100275.09;5019756;28;20916;-85
2023/04/08 01:01:26;;;;;;;43.13;15.07;;;;;;;8.41;86.97;100270.44;5000923;28;20050;-85
2023/04/08 01:04:06;;;;;;;39.70;15.25;;;;;;;8.30;87.42;100280.09;4990712;28;20481;-85
2023/04/08 01:06:42;;;;;;;45.75;13.52;;;;;;;8.31;86.62;100281.78;5005075;28;20125;-85
2023/04/08 01:09:10;;;;;;;48.55;16.15;;;;;;;8.41;86.92;100278.38;4996739;28;20104;-85
2023/04/08 01:11:41;;;;;;;54.38;14.45;;;;;;;8.23;88.20;100283.16;4986889;28;20057;-85
2023/04/08 01:14:09;;;;;;;51.92;13.82;;;;;;;8.36;87.37;100272.53;4985759;28;20045;-85
2023/04/08 01:16:39;;;;;;;45.92;14.15;;;;;;;8.37;87.30;100278.69;5017909;28;20073;-85
2023/04/08 01:19:07;;;;;;;56.58;15.18;;;;;;;8.43;86.77;100286.22;5006495;28;20061;-85
2023/04/08 01:21:36;;;;;;;35.20;13.32;;;;;;;8.36;87.52;100285.78;5002902;28;20053;-84
2023/04/08 01:24:15;;;;;;;36.03;13.52;;;;;;;8.33;87.27;100279.88;5005451;28;20859;-85
2023/04/08 01:26:42;;;;;;;38.40;14.77;;;;;;;8.35;87.44;100285.91;4983527;28;20096;-85
2023/04/08 01:29:10;;;;;;;38.63;13.70;;;;;;;8.31;87.36;100289.72;5022808;28;20429;-85
2023/04/08 01:31:38;;;;;;;36.60;13.10;;;;;;;8.35;87.10;100283.25;4985108;28;20060;-85
2023/04/08 01:34:05;;;;;;;43.28;13.23;;;;;;;8.29;87.75;100289.81;4980542;28;20046;-85
2023/04/08 01:36:34;;;;;;;42.28;15.95;;;;;;;8.43;86.90;100283.56;4995590;28;20050;-85
2023/04/08 01:39:02;;;;;;;38.55;13.90;;;;;;;8.32;87.15;100284.31;5013998;28;20133;-85
2023/04/08 01:41:29;;;;;;;32.10;12.55;;;;;;;8.42;86.79;100284.50;5012568;28;20128;-84
2023/04/08 01:43:57;;;;;;;30.35;11.93;;;;;;;8.37;86.33;100283.97;4987426;28;20049;-85
2023/04/08 01:46:24;;;;;;;31.27;12.40;;;;;;;8.39;86.21;100290.88;4988003;28;20404;-85
2023/04/08 01:48:51;;;;;;;36.47;13.77;;;;;;;8.46;85.74;100284.19;5027934;28;20504;-85
2023/04/08 01:51:18;;;;;;;30.58;12.43;;;;;;;8.42;86.07;100280.09;5009212;28;20045;-85
2023/04/08 01:53:45;;;;;;;37.35;14.00;;;;;;;8.45;86.08;100277.22;5013052;28;20099;-85
2023/04/08 01:56:14;;;;;;;36.85;14.30;;;;;;;8.35;86.66;100283.25;4985178;28;20048;-85
2023/04/08 01:58:46;;;;;;;44.45;14.15;;;;;;;8.26;86.99;100284.75;4988275;28;20045;-84
2023/04/08 02:01:14;;;;;;;44.25;13.43;;;;;;;8.35;86.25;100284.09;4975080;28;20046;-85
2023/04/08 02:03:43;;;;;;;38.58;13.65;;;;;;;8.30;86.87;100277.44;4984721;28;20056;-84
2023/04/08 02:06:12;;;;;;;41.60;14.73;;;;;;;8.31;86.89;100277.31;5016308;28;20103;-84
2023/04/08 02:08:39;;;;;;;46.70;14.68;;;;;;;8.31;86.90;100277.31;5005723;28;20049;-85
2023/04/08 02:11:09;;;;;;;44.55;14.68;;;;;;;8.25;87.18;100286.56;5018332;28;20494;-85
2023/04/08 02:13:35;;;;;;;47.88;14.73;;;;;;;8.26;87.14;100290.03;4982188;28;20340;-85
2023/04/08 02:16:23;;;;;;;47.70;15.25;;;;;;;8.18;87.22;100287.09;4975908;28;20038;-85
2023/04/08 02:18:58;;;;;;;42.83;15.38;;;;;;;8.25;86.78;100283.91;4989595;28;20088;-85
2023/04/08 02:21:31;;;;;;;45.55;14.57;;;;;;;8.20;87.09;100290.50;4998315;28;20053;-85
2023/04/08 02:24:03;;;;;;;43.03;14.13;;;;;;;8.13;87.36;100290.06;5003277;28;20080;-85
2023/04/08 02:26:32;;;;;;;44.15;14.55;;;;;;;8.16;87.54;100292.50;5010898;28;20042;-86
2023/04/08 02:29:01;;;;;;;41.00;14.02;;;;;;;8.13;87.50;100286.59;4967291;28;20037;-85
2023/04/08 02:31:27;;;;;;;35.50;12.93;;;;;;;8.22;87.27;100292.06;5015236;28;20045;-84
2023/04/08 02:33:55;;;;;;;36.13;12.68;;;;;;;8.21;87.10;100287.72;4988300;28;20046;-85
2023/04/08 02:36:22;;;;;;;34.72;14.00;;;;;;;8.23;87.17;100291.09;5002049;28;20053;-85
2023/04/08 02:39:36;;;;;;;38.70;13.35;;;;;;;8.08;87.14;100292.19;5016584;28;20056;-85
2023/04/08 02:42:03;;;;;;;39.40;14.27;;;;;;;8.17;87.30;100285.41;5023160;28;20041;-85
2023/04/08 02:44:31;;;;;;;42.90;14.45;;;;;;;8.19;87.25;100283.50;4965128;28;20136;-85
2023/04/08 02:47:01;;;;;;;38.33;13.18;;;;;;;8.17;87.02;100290.72;5003257;28;20049;-84
2023/04/08 02:49:52;;;;;;;40.88;13.60;;;;;;;8.07;87.28;100287.88;4967638;28;20099;-85
2023/04/08 02:52:19;;;;;;;49.25;14.93;;;;;;;8.19;87.39;100288.78;4992716;28;20569;-85
2023/04/08 02:54:46;;;;;;;49.35;16.23;;;;;;;8.18;87.24;100290.59;4994333;28;20046;-85
2023/04/08 02:57:13;;;;;;;40.17;14.85;;;;;;;8.18;87.21;100289.75;5001985;28;20504;-84
2023/04/08 02:59:40;;;;;;;39.28;15.88;;;;;;;8.14;87.83;100285.63;4987899;28;20493;-85
2023/04/08 03:02:07;;;;;;;39.10;13.73;;;;;;;8.13;87.54;100287.41;5024094;28;20049;-84
2023/04/08 03:04:34;;;;;;;34.13;13.23;;;;;;;8.16;87.28;100289.00;5028460;28;20073;-85
2023/04/08 03:07:00;;;;;;;36.90;13.13;;;;;;;8.16;86.97;100291.66;4997288;28;20046;-85
2023/04/08 03:09:27;;;;;;;33.15;12.65;;;;;;;8.11;86.53;100284.03;5017570;28;20140;-85
2023/04/08 03:11:54;;;;;;;28.98;12.05;;;;;;;8.05;86.44;100282.69;5014469;28;20052;-85
2023/04/08 03:14:21;;;;;;;27.13;11.30;;;;;;;8.00;86.01;100283.97;5008801;28;20052;-85
2023/04/08 03:16:47;;;;;;;32.83;12.45;;;;;;;7.97;85.76;100278.91;5012461;28;20137;-85
2023/04/08 03:19:15;;;;;;;29.92;10.88;;;;;;;7.94;85.74;100290.53;5011892;28;20037;-85
2023/04/08 03:21:41;;;;;;;25.88;10.52;;;;;;;7.98;85.32;100289.34;5002121;28;20080;-85
2023/04/08 03:24:08;;;;;;;35.83;12.68;;;;;;;8.02;85.74;100288.19;5012381;28;20046;-84
2023/04/08 03:26:35;;;;;;;34.72;13.68;;;;;;;7.98;86.37;100285.88;5018186;28;20087;-85
2023/04/08 03:29:02;;;;;;;33.42;12.93;;;;;;;7.97;86.77;100292.13;4997492;28;20176;-85
2023/04/08 03:31:28;;;;;;;38.42;13.20;;;;;;;7.98;86.54;100285.88;4999073;28;20042;-84
2023/04/08 03:33:55;;;;;;;29.15;11.45;;;;;;;7.91;85.88;100287.25;5013779;28;20092;-85
2023/04/08 03:36:22;;;;;;;27.45;10.05;;;;;;;7.89;85.59;100283.88;5013686;28;20050;-84
2023/04/08 03:38:49;;;;;;;21.83;10.07;;;;;;;7.86;85.00;100292.88;4978335;28;20100;-85
2023/04/08 03:41:16;;;;;;;33.20;11.35;;;;;;;7.88;85.00;100296.22;5002607;28;20073;-86
2023/04/08 03:43:43;;;;;;;26.45;11.00;;;;;;;7.85;85.35;100296.47;5015880;28;20543;-85
2023/04/08 03:46:10;;;;;;;27.73;11.23;;;;;;;7.89;85.28;100297.94;4970327;28;20042;-85
2023/04/08 03:48:37;;;;;;;41.45;14.55;;;;;;;7.95;86.26;100296.66;4989095;28;20042;-85
2023/04/08 03:51:03;;;;;;;38.92;14.95;;;;;;;7.94;86.96;100298.47;4974556;28;20041;-85
2023/04/08 03:53:30;;;;;;;42.08;13.35;;;;;;;7.89;87.22;100299.75;5018745;28;20057;-85
2023/04/08 03:55:57;;;;;;;40.67;14.27;;;;;;;7.86;88.02;100294.66;4996971;28;20044;-85
2023/04/08 03:58:24;;;;;;;37.05;13.68;;;;;;;7.84;88.06;100294.78;5013396;28;20052;-85
2023/04/08 04:00:50;;;;;;;30.50;12.70;;;;;;;7.88;87.52;100303.31;5025557;28;20038;-85
2023/04/08 04:03:17;;;;;;;66.20;14.68;;;;;;;7.88;87.59;100298.88;5008171;28;20046;-85
2023/04/08 04:05:44;;;;;;;38.92;13.35;;;;;;;7.94;87.02;100301.13;5010022;28;20137;-85
2023/04/08 04:08:11;;;;;;;48.92;15.23;;;;;;;7.85;87.11;100300.91;4995104;28;20501;-85
2023/04/08 04:10:38;;;;;;;41.92;14.38;;;;;;;7.91;87.45;100303.97;4982631;28;20042;-85
2023/04/08 04:13:04;;;;;;;39.58;12.27;;;;;;;7.85;87.93;100308.84;5031279;28;20447;-85
2023/04/08 04:15:31;;;;;;;37.83;12.70;;;;;;;7.83;87.94;100309.75;5026499;28;20046;-85
2023/04/08 04:17:58;;;;;;;45.92;12.70;;;;;;;7.82;88.18;100302.81;4986748;28;20054;-84
2023/04/08 04:20:25;;;;;;;33.67;11.93;;;;;;;7.77;88.97;100302.28;5006953;28;20053;-85
2023/04/08 04:22:52;;;;;;;45.88;12.55;;;;;;;7.84;88.69;100297.41;5017203;28;20049;-84
2023/04/08 04:25:18;;;;;;;42.08;12.68;;;;;;;7.85;88.42;100304.38;5000957;28;20088;-85
2023/04/08 04:27:45;;;;;;;42.70;14.75;;;;;;;7.85;88.65;100301.75;5004040;28;20096;-85
2023/04/08 04:30:14;;;;;;;55.80;17.83;;;;;;;7.84;88.31;100310.63;5016090;28;20634;-85
2023/04/08 04:32:41;;;;;;;49.92;13.93;;;;;;;7.77;88.48;100315.50;4985616;28;20501;-84
2023/04/08 04:35:11;;;;;;;43.17;12.55;;;;;;;7.80;87.82;100317.06;5020661;28;20048;-85
2023/04/08 04:37:38;;;;;;;45.08;15.20;;;;;;;7.77;88.26;100312.00;4983710;28;20049;-85
2023/04/08 04:40:06;;;;;;;55.38;14.43;;;;;;;7.71;88.98;100318.56;5013810;28;20113;-84
2023/04/08 04:42:33;;;;;;;48.03;14.75;;;;;;;7.78;88.80;100318.97;4971810;28;21875;-85
2023/04/08 04:44:59;;;;;;;50.88;17.25;;;;;;;7.73;88.80;100313.16;5015924;28;20057;-85
2023/04/08 04:47:26;;;;;;;49.78;14.85;;;;;;;7.77;89.13;100314.66;5001526;28;20103;-85
2023/04/08 04:49:53;;;;;;;51.05;15.35;;;;;;;7.76;89.30;100323.50;5012906;28;20901;-85
2023/04/08 04:52:20;;;;;;;65.30;13.80;;;;;;;7.61;90.04;100322.78;5003030;28;20409;-85
2023/04/08 04:54:46;;;;;;;45.35;15.55;;;;;;;7.67;89.78;100329.47;5015546;28;20049;-85
2023/04/08 04:57:13;;;;;;;40.90;14.07;;;;;;;7.68;89.72;100331.97;5014532;28;20049;-85
2023/04/08 04:59:40;;;;;;;38.97;14.07;;;;;;;7.71;89.45;100333.56;5015400;28;20104;-85
2023/04/08 05:02:07;;;;;;;44.75;14.77;;;;;;;7.70;89.51;100342.47;5000811;28;20064;-84
2023/04/08 05:04:34;;;;;;;41.90;13.30;;;;;;;7.78;89.51;100340.13;4989446;28;20080;-85
2023/04/08 05:07:01;;;;;;;40.95;14.40;;;;;;;7.74;89.91;100342.16;5014173;28;20048;-85
2023/04/08 05:09:28;;;;;;;69.22;16.27;;;;;;;7.74;89.54;100349.25;5016339;28;20512;-84
2023/04/08 05:11:55;;;;;;;54.03;14.30;;;;;;;7.74;89.43;100351.88;5001333;28;20524;-85
2023/04/08 05:14:22;;;;;;;48.22;15.02;;;;;;;7.75;89.62;100349.13;5014200;28;20038;-85
2023/04/08 05:16:49;;;;;;;56.85;15.95;;;;;;;7.77;89.74;100352.50;4996509;28;20046;-84
2023/04/08 05:19:16;;;;;;;52.15;16.05;;;;;;;7.81;89.75;100361.94;4998418;28;20168;-85
2023/04/08 05:21:42;;;;;;;45.65;15.57;;;;;;;7.72;90.44;100359.91;5025863;28;20046;-85
2023/04/08 05:24:09;;;;;;;53.15;15.38;;;;;;;7.74;89.83;100365.09;5000783;28;20045;-85
2023/04/08 05:26:36;;;;;;;45.60;13.52;;;;;;;7.78;89.64;100359.47;4998821;28;22765;-85
2023/04/08 05:29:03;;;;;;;50.13;15.70;;;;;;;7.80;90.04;100357.56;5013568;28;20079;-85
2023/04/08 05:31:30;;;;;;;43.53;14.40;;;;;;;7.77;89.74;100352.50;5000486;28;20065;-85
2023/04/08 05:33:57;;;;;;;49.38;15.52;;;;;;;7.78;90.18;100356.00;4996163;28;20057;-85
2023/04/08 05:36:25;;;;;;;42.60;14.55;;;;;;;7.80;90.81;100354.09;5002497;28;20054;-84
2023/04/08 05:38:51;;;;;;;43.30;15.52;;;;;;;7.79;90.45;100355.91;5010652;28;20052;-85
2023/04/08 05:41:18;;;;;;;39.85;14.27;;;;;;;7.87;90.11;100347.44;5028227;28;20066;-85
2023/04/08 05:43:45;;;;;;;42.53;14.50;;;;;;;7.83;90.28;100360.00;4999985;28;20481;-84
2023/04/08 05:46:12;;;;;;;47.65;15.75;;;;;;;7.82;89.91;100366.25;5009924;28;20124;-85
2023/04/08 05:48:38;;;;;;;44.55;16.23;;;;;;;7.79;89.38;100370.91;4983039;28;20053;-85
2023/04/08 05:51:05;;;;;;;51.95;16.65;;;;;;;7.75;89.56;100367.63;5016730;28;20555;-85
2023/04/08 05:53:32;;;;;;;42.85;14.43;;;;;;;7.73;89.88;100366.03;5012970;28;20038;-85
2023/04/08 05:55:58;;;;;;;46.47;15.75;;;;;;;7.81;89.95;100359.28;4992419;28;20069;-84
2023/04/08 05:58:25;;;;;;;46.58;16.10;;;;;;;7.81;90.20;100366.34;5011930;28;20677;-85
2023/04/08 06:00:52;;;;;;;54.08;16.15;;;;;;;7.89;89.21;100379.06;4983010;28;20041;-84
2023/04/08 06:03:19;;;;;;;38.50;14.07;;;;;;;7.89;88.80;100387.84;4991585;28;20132;-85
2023/04/08 06:05:46;;;;;;;38.30;13.18;;;;;;;7.87;89.04;100381.81;4985690;28;20038;-85
2023/04/08 06:08:13;;;;;;;37.80;12.98;;;;;;;7.81;88.83;100388.38;5010788;28;20115;-85
2023/04/08 06:10:40;;;;;;;35.35;12.65;;;;;;;7.82;88.78;100386.56;5016779;28;20770;-84
2023/04/08 06:13:06;;;;;;;44.70;12.98;;;;;;;7.78;89.08;100383.25;5012312;28;20448;-85
2023/04/08 06:15:33;;;;;;;34.38;13.68;;;;;;;7.89;89.28;100389.66;4990775;28;20045;-85
2023/04/08 06:18:00;;;;;;;37.92;14.00;;;;;;;7.90;90.17;100386.03;4992100;28;20488;-85
2023/04/08 06:20:27;;;;;;;40.75;14.30;;;;;;;7.89;90.86;100387.00;5011365;28;20664;-85
2023/04/08 06:22:54;;;;;;;40.50;13.45;;;;;;;7.94;90.27;100383.09;4987610;28;20046;-85
2023/04/08 06:25:20;;;;;;;38.85;13.80;;;;;;;7.99;90.30;100369.56;5013619;28;20049;-85
2023/04/08 06:27:47;;;;;;;36.92;14.98;;;;;;;8.09;89.94;100386.47;5026623;28;20045;-85
2023/04/08 06:30:15;;;;;;;48.03;16.48;;;;;;;8.12;89.58;100391.56;4973100;28;20497;-84
2023/04/08 06:32:42;;;;;;;44.58;14.18;;;;;;;8.10;89.20;100403.19;4998501;28;20046;-85
2023/04/08 06:35:08;;;;;;;53.28;16.15;;;;;;;8.03;89.39;100395.66;5004873;28;20038;-85
2023/04/08 06:37:37;;;;;;;48.70;15.18;;;;;;;8.03;89.16;100395.66;5014203;28;20599;-84
2023/04/08 06:40:05;;;;;;;47.83;14.95;;;;;;;8.00;89.68;100403.81;5000146;28;20409;-85
2023/04/08 06:42:32;;;;;;;34.90;13.77;;;;;;;8.05;89.18;100399.06;5029767;28;20124;-85
2023/04/08 06:45:09;;;;;;;37.45;13.85;;;;;;;8.09;90.01;100407.63;4998397;28;20489;-85
2023/04/08 06:47:35;;;;;;;39.78;14.43;;;;;;;8.08;89.92;100405.94;5011792;28;20445;-85
2023/04/08 06:50:02;;;;;;;41.92;15.00;;;;;;;8.12;89.61;100418.00;5029683;28;20037;-85
2023/04/08 06:52:29;;;;;;;38.22;14.45;;;;;;;8.11;89.91;100418.94;5027108;28;20037;-85
2023/04/08 06:54:55;;;;;;;44.22;14.98;;;;;;;8.18;89.67;100420.22;5024393;28;20041;-85
2023/04/08 06:57:22;;;;;;;42.78;16.40;;;;;;;8.11;89.60;100418.94;5011814;28;20133;-85
2023/04/08 06:59:49;;;;;;;47.67;15.25;;;;;;;8.11;89.84;100416.28;4997613;28;20048;-83
2023/04/08 07:02:16;;;;;;;40.03;14.68;;;;;;;8.10;90.36;100417.25;5000846;28;20124;-84
2023/04/08 07:04:43;;;;;;;44.97;15.27;;;;;;;8.17;90.14;100426.47;4993111;28;20096;-84
2023/04/08 07:07:12;;;;;;;45.72;16.23;;;;;;;8.23;89.90;100430.47;5013297;28;20076;-84
2023/04/08 07:09:42;;;;;;;42.67;15.63;;;;;;;8.33;89.53;100431.53;5026451;28;20049;-85
2023/04/08 07:12:08;;;;;;;40.47;15.38;;;;;;;8.36;89.19;100433.13;5024728;28;20046;-84
2023/04/08 07:14:35;;;;;;;42.70;14.77;;;;;;;8.39;88.84;100428.47;4994657;28;20041;-84
2023/04/08 07:17:02;;;;;;;40.15;15.48;;;;;;;8.51;89.17;100433.88;5009228;28;20049;-85
2023/04/08 07:19:28;;;;;;;40.28;14.68;;;;;;;8.59;88.75;100426.25;5026387;28;20047;-84
2023/04/08 07:21:56;;;;;;;42.47;15.35;;;;;;;8.67;88.63;100426.53;4985275;28;20140;-84
2023/04/08 07:24:23;;;;;;;43.28;16.38;;;;;;;8.73;87.95;100433.19;4984294;28;20049;-84
2023/04/08 07:26:50;;;;;;;40.13;14.68;;;;;;;8.77;87.84;100438.16;5024996;28;20046;-84
2023/04/08 07:29:17;;;;;;;43.80;15.90;;;;;;;8.83;88.12;100426.31;5011313;28;20056;-85
2023/04/08 07:31:43;;;;;;;34.97;13.65;;;;;;;8.83;87.95;100435.09;5027975;28;20124;-86
2023/04/08 07:34:10;;;;;;;45.05;16.20;;;;;;;8.90;87.29;100432.84;5009866;28;20053;-86
2023/04/08 07:36:38;;;;;;;53.58;17.08;;;;;;;8.86;87.62;100437.53;5012083;28;20123;-85
2023/04/08 07:39:05;;;;;;;48.72;17.77;;;;;;;8.82;87.83;100438.69;5017927;28;20076;-85
2023/04/08 07:41:31;;;;;;;47.60;16.92;;;;;;;8.85;87.68;100440.28;4993571;28;20052;-84
2023/04/08 07:43:58;;;;;;;49.60;16.80;;;;;;;8.86;87.90;100449.94;4995551;28;20108;-83
2023/04/08 07:46:25;;;;;;;45.22;17.40;;;;;;;8.92;87.37;100449.47;5006457;28;20060;-83
2023/04/08 07:48:52;;;;;;;51.28;17.77;;;;;;;8.91;87.36;100443.34;5026931;28;20052;-83
2023/04/08 07:51:19;;;;;;;49.33;17.77;;;;;;;8.97;87.84;100439.41;5011910;28;20732;-83
2023/04/08 07:53:46;;;;;;;45.78;16.38;;;;;;;9.11;87.44;100443.72;5014185;28;20786;-83
2023/04/08 07:56:15;;;;;;;49.03;18.55;;;;;;;9.17;87.35;100445.91;5032807;28;20124;-83
2023/04/08 07:58:41;;;;;;;51.80;18.58;;;;;;;9.20;87.33;100437.72;5015611;28;20050;-83
2023/04/08 08:01:22;;;;;;;50.67;18.83;;;;;;;9.24;87.20;100446.31;5032903;28;20045;-84
2023/04/08 08:03:50;;;;;;;52.90;20.08;;;;;;;9.31;86.93;100444.88;5002116;28;20049;-83
2023/04/08 08:06:19;;;;;;;49.72;18.77;;;;;;;9.33;87.06;100438.50;5027218;28;20045;-83
2023/04/08 08:08:46;;;;;;;56.17;20.42;;;;;;;9.39;86.90;100445.19;5013306;28;20061;-83
2023/04/08 08:11:12;;;;;;;52.75;20.90;;;;;;;9.41;86.08;100455.66;5016943;28;20088;-84
2023/04/08 08:13:39;;;;;;;49.55;19.10;;;;;;;9.45;85.51;100451.84;5026259;28;20474;-83
2023/04/08 08:16:07;;;;;;;46.20;18.27;;;;;;;9.48;85.54;100455.09;5032441;28;20041;-83
2023/04/08 08:18:35;;;;;;;44.58;17.80;;;;;;;9.50;85.00;100455.81;5014408;28;20492;-83
2023/04/08 08:21:02;;;;;;;51.75;19.85;;;;;;;9.55;84.57;100458.16;4979335;28;20045;-83
2023/04/08 08:23:29;;;;;;;50.28;19.27;;;;;;;9.57;83.71;100451.75;4991708;28;20132;-83
2023/04/08 08:26:06;;;;;;;49.70;18.52;;;;;;;9.58;82.87;100460.56;5031074;28;20095;-84
2023/04/08 08:28:33;;;;;;;55.35;19.77;;;;;;;9.63;83.22;100460.22;5017614;28;20045;-83
2023/04/08 08:31:00;;;;;;;44.45;18.67;;;;;;;9.67;83.06;100461.69;5019615;28;20049;-83
2023/04/08 08:33:26;;;;;;;52.95;19.92;;;;;;;9.72;82.88;100459.56;5032741;28;20114;-84
2023/04/08 08:35:54;;;;;;;53.47;19.60;;;;;;;9.83;82.33;100462.22;5014596;28;20053;-83
2023/04/08 08:38:21;;;;;;;55.83;20.23;;;;;;;9.78;80.01;100462.56;5030050;28;20053;-83
2023/04/08 08:40:56;;;;;;;47.45;17.33;;;;;;;9.84;78.82;100458.59;5016472;28;20780;-83
2023/04/08 08:43:26;;;;;;;48.97;21.55;;;;;;;9.90;77.34;100460.81;4994110;28;20489;-84
2023/04/08 08:45:53;;;;;;;54.67;20.60;;;;;;;9.94;77.25;100464.91;5000254;28;20060;-83
2023/04/08 08:48:20;;;;;;;53.30;19.67;;;;;;;9.99;76.91;100465.41;5029382;28;20042;-84
2023/04/08 08:50:47;;;;;;;48.53;19.10;;;;;;;10.03;75.66;100466.03;5031564;28;20556;-84
2023/04/08 08:53:14;;;;;;;57.47;18.58;;;;;;;10.03;75.38;100471.34;5003048;28;20456;-83
2023/04/08 08:55:41;;;;;;;46.13;18.88;;;;;;;10.05;75.37;100474.72;5031138;28;20052;-84
2023/04/08 08:58:10;;;;;;;51.92;19.90;;;;;;;10.10;75.66;100475.22;4982488;28;20103;-84
2023/04/08 09:00:39;;;;;;;45.45;18.25;;;;;;;10.13;74.93;100480.28;5012373;28;20056;-83
2023/04/08 09:03:26;;;;;;;45.80;19.27;;;;;;;10.04;72.26;100473.00;5004471;28;20073;-83
2023/04/08 09:05:56;;;;;;;45.33;17.48;;;;;;;10.11;74.26;100478.72;4982199;28;20046;-83
2023/04/08 09:08:33;;;;;;;48.67;19.40;;;;;;;10.10;73.17;100477.88;5023606;28;20401;-83
2023/04/08 09:11:21;;;;;;;50.92;18.70;;;;;;;10.03;71.55;100481.94;4995774;28;20041;-83
2023/04/08 09:13:48;;;;;;;50.15;19.77;;;;;;;10.10;73.40;100477.88;5008971;28;20137;-83
2023/04/08 09:16:17;;;;;;;49.58;19.77;;;;;;;10.16;74.01;100477.38;5003374;28;20068;-83
2023/04/08 09:18:46;;;;;;;49.88;18.77;;;;;;;10.17;73.82;100476.41;5010691;28;20095;-83
2023/04/08 09:21:13;;;;;;;49.67;20.05;;;;;;;10.22;73.82;100486.69;4997024;28;20042;-84
2023/04/08 09:23:45;;;;;;;48.88;19.58;;;;;;;10.27;72.91;100481.88;5028356;28;20048;-83
2023/04/08 09:26:18;;;;;;;52.13;19.45;;;;;;;10.22;72.56;100481.38;5011319;28;20081;-83
2023/04/08 09:28:59;;;;;;;41.97;16.98;;;;;;;10.23;72.71;100483.09;5025050;28;20063;-84
2023/04/08 09:31:37;;;;;;;44.35;19.17;;;;;;;10.31;73.58;100477.22;4999171;28;20417;-83
2023/04/08 09:34:12;;;;;;;49.05;20.25;;;;;;;10.29;71.57;100471.19;5021625;28;20077;-83
2023/04/08 09:36:39;;;;;;;49.30;20.10;;;;;;;10.24;69.67;100473.31;4969728;28;20054;-84
2023/04/08 09:39:06;;;;;;;49.30;18.38;;;;;;;10.29;71.71;100468.53;5024514;28;20045;-84
2023/04/08 09:41:34;;;;;;;41.30;16.85;;;;;;;10.33;71.83;100477.91;5004224;28;20050;-83
2023/04/08 09:44:06;;;;;;;51.17;19.50;;;;;;;10.36;71.24;100478.56;5024721;28;20064;-84
2023/04/08 09:46:49;;;;;;;41.70;17.40;;;;;;;10.29;70.94;100471.19;4986358;28;20904;-83
2023/04/08 09:49:28;;;;;;;38.70;14.95;;;;;;;10.35;71.64;100478.66;5011761;28;20806;-83
2023/04/08 09:52:06;;;;;;;46.75;19.25;;;;;;;10.36;71.46;100470.59;4996858;28;20042;-83
2023/04/08 09:54:42;;;;;;;43.90;19.15;;;;;;;10.38;70.11;100473.09;5010893;28;20099;-84
2023/04/08 09:57:12;;;;;;;47.03;19.60;;;;;;;10.38;70.16;100476.63;5004606;28;20049;-83
2023/04/08 09:59:44;;;;;;;47.05;18.75;;;;;;;10.44;70.60;100477.97;5000262;28;20767;-83
2023/04/08 10:02:16;;;;;;;38.83;17.17;;;;;;;10.39;69.14;100477.47;5010113;28;20041;-83
2023/04/08 10:04:44;;;;;;;46.28;18.00;;;;;;;10.44;70.10;100480.63;5003223;28;20459;-84
2023/04/08 10:07:13;;;;;;;46.20;17.05;;;;;;;10.48;69.72;100489.16;5025726;28;20500;-83
2023/04/08 10:09:41;;;;;;;39.75;17.10;;;;;;;10.51;69.96;100478.34;5021554;28;20052;-83
2023/04/08 10:12:08;;;;;;;48.80;18.73;;;;;;;10.52;69.81;100486.16;5020242;28;20048;-83
2023/04/08 10:14:35;;;;;;;43.88;19.30;;;;;;;10.49;68.56;100483.75;5025348;28;20065;-84
2023/04/08 10:17:25;;;;;;;47.20;19.33;;;;;;;10.39;66.61;100482.78;5013585;28;20075;-84
2023/04/08 10:19:52;;;;;;;45.70;18.58;;;;;;;10.45;68.91;100482.28;5025919;28;20049;-84
2023/04/08 10:22:27;;;;;;;45.58;20.23;;;;;;;10.43;67.24;100481.56;5016200;28;20445;-84
2023/04/08 10:25:14;;;;;;;46.10;17.88;;;;;;;10.40;61.50;100481.81;5009814;28;20049;-84
2023/04/08 10:27:42;;;;;;;37.53;17.38;;;;;;;10.39;64.55;100474.81;5011470;28;20098;-83
2023/04/08 10:30:27;;;;;;;35.70;14.60;;;;;;;10.27;59.02;100481.03;5018801;28;20074;-83
2023/04/08 10:33:00;;;;;;;43.63;16.70;;;;;;;10.23;60.05;100477.78;5004507;28;20080;-83
2023/04/08 10:35:40;;;;;;;33.88;13.32;;;;;;;10.20;60.99;100480.66;4989464;28;20046;-83
2023/04/08 10:38:08;;;;;;;30.92;14.48;;;;;;;10.17;60.45;100478.22;5009040;28;20045;-83
2023/04/08 10:40:37;;;;;;;25.95;13.80;;;;;;;10.17;59.24;100487.03;5001505;28;20069;-83
2023/04/08 10:43:04;;;;;;;30.65;13.23;;;;;;;10.17;58.77;100486.19;4985837;28;20049;-83
2023/04/08 10:45:31;;;;;;;29.95;12.90;;;;;;;10.15;60.73;100493.41;5013749;28;20053;-83
2023/04/08 10:48:17;;;;;;;34.28;13.57;;;;;;;10.11;60.22;100489.31;5011144;28;20058;-83
2023/04/08 10:50:54;;;;;;;30.60;12.60;;;;;;;10.09;59.26;100491.25;4994434;28;20053;-83
2023/04/08 10:53:26;;;;;;;29.00;13.85;;;;;;;10.07;59.19;100496.66;4983812;28;20045;-83
2023/04/08 10:55:53;;;;;;;26.88;11.55;;;;;;;10.11;60.63;100487.50;5010356;28;20079;-83
2023/04/08 10:58:20;;;;;;;29.60;12.13;;;;;;;10.09;61.34;100492.09;5021282;28;20050;-83
2023/04/08 11:00:46;;;;;;;26.40;11.73;;;;;;;10.10;59.95;100492.94;5009102;28;20519;-82
2023/04/08 11:03:13;;;;;;;26.35;12.02;;;;;;;9.98;60.51;100492.91;5008367;28;20053;-84
2023/04/08 11:05:42;;;;;;;32.55;11.93;;;;;;;10.09;61.35;100494.75;5009000;28;20125;-83
2023/04/08 11:08:09;;;;;;;25.88;12.02;;;;;;;10.18;61.44;100488.75;4983613;28;20042;-83
2023/04/08 11:10:40;;;;;;;27.13;12.25;;;;;;;10.27;59.54;100489.84;5025128;28;20046;-83
2023/04/08 11:13:08;;;;;;;24.20;12.15;;;;;;;10.22;59.40;100484.03;5024260;28;20052;-83
2023/04/08 11:15:35;;;;;;;23.75;11.30;;;;;;;10.20;60.21;100484.16;4984322;28;20121;-83
2023/04/08 11:18:05;;;;;;;24.02;10.82;;;;;;;10.16;58.04;100484.50;4996145;28;20104;-83
2023/04/08 11:20:36;;;;;;;19.30;10.80;;;;;;;10.21;59.69;100477.88;5007640;28;20125;-83
2023/04/08 11:23:02;;;;;;;18.23;9.90;;;;;;;10.21;59.66;100475.22;4993132;28;20049;-83
2023/04/08 11:25:29;;;;;;;24.45;9.65;;;;;;;10.32;60.16;100479.75;5008214;28;20757;-83